Time;durP1;ratioP1;P1;durP2;ratioP2;P2;SDS_P1;SDS_P2;PMS_P1;PMS_P2;Temp;Humidity;BMP_temperature;BMP_pressure;BME280_temperature;BME280_humidity;BME280_pressure;Samples;Min_cycle;Max_cycle;Signal;HPM_P1;HPM_P2
2023/05/29 00:01:35;;;;;;;4.00;2.60;;;15.20;99.90;;;;;;5015756;28;20588;-72
2023/05/29 00:04:01;;;;;;;4.03;2.43;;;15.20;99.90;;;;;;5015756;28;20187;-72
2023/05/29 00:06:27;;;;;;;4.67;2.67;;;15.10;99.90;;;;;;5015725;28;20438;-72
2023/05/29 00:08:52;;;;;;;5.00;2.87;;;15.00;99.90;;;;;;5015388;28;20189;-72
2023/05/29 00:11:18;;;;;;;2.83;2.53;;;15.00;99.90;;;;;;5015670;28;20199;-72
2023/05/29 00:13:43;;;;;;;4.27;2.40;;;14.90;99.90;;;;;;5015461;28;20673;-72
2023/05/29 00:16:09;;;;;;;2.30;2.10;;;14.90;99.90;;;;;;5015519;28;20168;-71
2023/05/29 00:18:35;;;;;;;5.07;2.07;;;14.80;99.90;;;;;;5015173;28;20211;-71
2023/05/29 00:21:01;;;;;;;3.30;2.03;;;14.80;99.90;;;;;;5015390;28;20175;-71
2023/05/29 00:23:27;;;;;;;4.23;3.47;;;14.70;99.90;;;;;;5015377;28;20542;-71
2023/05/29 00:25:52;;;;;;;4.70;2.50;;;14.70;99.90;;;;;;5015326;28;20502;-71
2023/05/29 00:28:18;;;;;;;5.23;2.77;;;14.70;99.90;;;;;;5014960;28;20704;-71
2023/05/29 00:30:44;;;;;;;2.90;1.90;;;14.60;99.90;;;;;;5015261;28;20525;-71
2023/05/29 00:33:09;;;;;;;3.17;2.87;;;14.50;99.90;;;;;;5014792;28;20172;-71
2023/05/29 00:35:35;;;;;;;3.50;2.40;;;14.50;99.90;;;;;;5014745;28;20252;-71
2023/05/29 00:38:00;;;;;;;2.77;2.27;;;14.50;99.90;;;;;;5014396;28;20191;-71
2023/05/29 00:40:26;;;;;;;4.17;1.73;;;14.40;99.90;;;;;;5014985;28;20210;-71
2023/05/29 00:42:51;;;;;;;4.93;2.60;;;14.40;99.90;;;;;;5014868;28;20202;-72
2023/05/29 00:45:18;;;;;;;3.73;2.10;;;14.30;99.90;;;;;;5014849;28;20255;-71
2023/05/29 00:47:44;;;;;;;2.43;2.23;;;14.30;99.90;;;;;;5014503;28;20191;-71
2023/05/29 00:50:13;;;;;;;3.20;2.20;;;14.30;99.90;;;;;;5014842;28;20451;-71
2023/05/29 00:52:41;;;;;;;3.33;2.43;;;14.20;99.90;;;;;;5013867;28;20486;-72
2023/05/29 00:55:07;;;;;;;3.00;2.33;;;14.20;99.90;;;;;;5014714;28;20433;-72
2023/05/29 00:57:34;;;;;;;2.47;2.20;;;14.10;99.90;;;;;;5014562;28;20795;-71
2023/05/29 01:00:00;;;;;;;3.17;2.20;;;14.10;99.90;;;;;;5014617;28;20407;-71
2023/05/29 01:02:29;;;;;;;2.80;2.00;;;14.00;99.90;;;;;;5014639;28;20811;-71
2023/05/29 01:04:55;;;;;;;4.73;2.57;;;14.00;99.90;;;;;;5014555;28;20164;-71
2023/05/29 01:07:21;;;;;;;2.63;2.03;;;14.00;99.90;;;;;;5014284;28;20431;-71
2023/05/29 01:09:47;;;;;;;2.70;2.10;;;13.90;99.90;;;;;;4996792;28;20455;-71
2023/05/29 01:12:42;;;;;;;1.90;1.70;;;13.90;99.90;;;;;;5014418;28;20411;-71
2023/05/29 01:15:37;;;;;;;2.43;2.10;;;13.80;99.90;;;;;;4997248;28;20185;-71
2023/05/29 01:18:19;;;;;;;3.53;2.30;;;13.80;99.90;;;;;;5014039;28;20467;-71
2023/05/29 01:21:11;;;;;;;3.10;2.00;;;13.80;99.90;;;;;;5014633;28;20465;-71
2023/05/29 01:23:51;;;;;;;4.03;2.80;;;13.80;99.90;;;;;;5014411;28;20407;-71
2023/05/29 01:26:42;;;;;;;2.63;2.10;;;13.70;99.90;;;;;;5014304;28;20740;-71
2023/05/29 01:29:10;;;;;;;2.60;1.77;;;13.70;99.90;;;;;;5013785;28;21084;-71
2023/05/29 01:31:37;;;;;;;2.50;2.27;;;13.60;99.90;;;;;;5014176;28;20391;-71
2023/05/29 01:34:02;;;;;;;2.87;2.30;;;13.60;99.90;;;;;;5013716;28;20407;-71
2023/05/29 01:36:28;;;;;;;4.50;2.30;;;13.60;99.90;;;;;;5014100;28;20403;-71
2023/05/29 01:38:57;;;;;;;4.00;2.03;;;13.50;99.90;;;;;;5013723;28;20191;-71
2023/05/29 01:41:24;;;;;;;4.70;2.30;;;13.50;99.90;;;;;;5013968;28;20172;-71
2023/05/29 01:43:50;;;;;;;2.23;1.77;;;13.50;99.90;;;;;;5013930;28;20443;-71
2023/05/29 01:46:17;;;;;;;3.57;2.20;;;13.40;99.90;;;;;;5013614;28;20408;-71
2023/05/29 01:48:44;;;;;;;2.73;1.93;;;13.40;99.90;;;;;;5013297;28;20427;-71
2023/05/29 01:51:13;;;;;;;2.57;1.93;;;13.30;99.90;;;;;;5013575;28;20872;-71
2023/05/29 01:53:40;;;;;;;3.20;2.47;;;13.30;99.90;;;;;;5013676;28;20434;-71
2023/05/29 01:56:07;;;;;;;3.00;2.33;;;13.30;99.90;;;;;;5013735;28;20427;-71
2023/05/29 01:58:34;;;;;;;7.67;2.33;;;13.20;99.90;;;;;;5013402;28;20427;-71
2023/05/29 02:01:03;;;;;;;5.00;2.17;;;13.20;99.90;;;;;;5013570;28;20766;-71
2023/05/29 02:03:29;;;;;;;4.13;2.30;;;13.20;99.90;;;;;;5013195;28;20494;-71
2023/05/29 02:05:59;;;;;;;3.47;2.33;;;13.10;99.90;;;;;;5013489;28;20499;-71
2023/05/29 02:08:24;;;;;;;4.53;2.40;;;13.10;99.90;;;;;;5013116;28;20423;-71
2023/05/29 02:10:50;;;;;;;2.47;1.87;;;13.00;99.90;;;;;;5013330;28;20964;-71
2023/05/29 02:13:17;;;;;;;2.80;2.23;;;13.00;99.90;;;;;;5013324;28;20180;-71
2023/05/29 02:15:42;;;;;;;4.07;2.30;;;13.00;99.90;;;;;;5013375;28;20646;-71
2023/05/29 02:18:12;;;;;;;2.27;2.07;;;12.90;99.90;;;;;;5012948;28;20415;-71
2023/05/29 02:20:38;;;;;;;2.40;2.03;;;12.90;99.90;;;;;;5013244;28;20594;-71
2023/05/29 02:23:04;;;;;;;2.50;2.30;;;12.90;99.90;;;;;;5013185;28;20407;-71
2023/05/29 02:25:30;;;;;;;2.90;2.27;;;12.90;99.90;;;;;;5013147;28;20415;-71
2023/05/29 02:27:56;;;;;;;3.33;2.30;;;12.90;99.90;;;;;;5012803;28;20790;-71
2023/05/29 02:30:21;;;;;;;2.90;2.37;;;12.90;99.90;;;;;;5012922;28;20199;-71
2023/05/29 02:32:47;;;;;;;3.60;2.33;;;12.80;99.90;;;;;;5013020;28;20165;-71
2023/05/29 02:35:17;;;;;;;3.27;2.50;;;12.80;99.90;;;;;;5013262;28;20164;-71
2023/05/29 02:37:42;;;;;;;3.50;2.17;;;12.80;99.90;;;;;;5012552;28;20184;-71
2023/05/29 02:40:08;;;;;;;3.77;2.70;;;12.70;99.90;;;;;;5012862;28;20429;-71
2023/05/29 02:42:34;;;;;;;4.37;2.30;;;12.70;99.90;;;;;;5012860;28;20552;-71
2023/05/29 02:44:59;;;;;;;7.63;2.23;;;12.70;99.90;;;;;;5012816;28;20407;-71
2023/05/29 02:47:25;;;;;;;3.87;2.90;;;12.70;99.90;;;;;;5012419;28;20219;-71
2023/05/29 02:49:51;;;;;;;3.33;2.47;;;12.70;99.90;;;;;;5012688;28;20561;-71
2023/05/29 02:52:16;;;;;;;2.83;2.20;;;12.60;99.90;;;;;;5012631;28;20165;-71
2023/05/29 02:54:42;;;;;;;5.33;2.70;;;12.60;99.90;;;;;;5012703;28;20196;-71
2023/05/29 02:57:07;;;;;;;4.20;2.40;;;12.60;99.90;;;;;;5012216;28;20182;-71
2023/05/29 02:59:33;;;;;;;12.77;2.30;;;12.50;99.90;;;;;;5012721;28;20213;-71
2023/05/29 03:01:58;;;;;;;3.33;2.10;;;12.50;99.90;;;;;;5012582;28;20267;-71
2023/05/29 03:04:24;;;;;;;2.10;1.90;;;12.50;99.90;;;;;;5012550;28;20815;-71
2023/05/29 03:06:49;;;;;;;2.80;2.00;;;12.40;99.90;;;;;;5012300;28;20164;-71
2023/05/29 03:09:16;;;;;;;3.43;2.80;;;12.40;99.90;;;;;;5012239;28;20188;-71
2023/05/29 03:11:42;;;;;;;5.90;2.40;;;12.30;99.90;;;;;;5012493;28;20176;-71
2023/05/29 03:14:07;;;;;;;5.00;2.20;;;12.30;99.90;;;;;;5012244;28;20431;-71
2023/05/29 03:16:33;;;;;;;4.40;2.30;;;12.30;99.90;;;;;;5011914;28;20206;-71
2023/05/29 03:18:58;;;;;;;3.33;1.80;;;12.20;99.90;;;;;;5011959;28;20176;-71
2023/05/29 03:21:24;;;;;;;3.73;2.20;;;12.20;99.90;;;;;;5012327;28;20176;-71
2023/05/29 03:23:50;;;;;;;3.47;3.07;;;12.20;99.90;;;;;;5012289;28;20219;-71
2023/05/29 03:26:16;;;;;;;3.00;2.70;;;12.10;99.90;;;;;;5012331;28;20169;-71
2023/05/29 03:28:41;;;;;;;2.73;1.80;;;12.10;99.90;;;;;;5012069;28;20427;-71
2023/05/29 03:31:08;;;;;;;4.90;2.90;;;12.10;99.90;;;;;;5012237;28;20200;-71
2023/05/29 03:33:34;;;;;;;4.67;2.37;;;12.00;99.90;;;;;;5012258;28;20160;-71
2023/05/29 03:36:00;;;;;;;3.13;2.00;;;12.00;99.90;;;;;;5012147;28;20442;-71
2023/05/29 03:38:25;;;;;;;4.20;2.27;;;12.00;99.90;;;;;;5011828;28;20825;-71
2023/05/29 03:40:51;;;;;;;6.53;2.27;;;12.00;99.90;;;;;;5012217;28;20183;-71
2023/05/29 03:43:16;;;;;;;7.43;2.37;;;12.00;99.90;;;;;;5012127;28;20596;-71
2023/05/29 03:45:42;;;;;;;3.20;1.60;;;11.90;99.90;;;;;;5012081;28;20684;-71
2023/05/29 03:48:07;;;;;;;5.13;1.97;;;11.90;99.90;;;;;;5011628;28;20202;-71
2023/05/29 03:50:33;;;;;;;5.43;2.23;;;11.90;99.90;;;;;;5011922;28;20203;-71
2023/05/29 03:52:58;;;;;;;4.40;2.10;;;11.90;99.90;;;;;;5011990;28;20249;-71
2023/05/29 03:55:26;;;;;;;3.00;2.13;;;11.90;99.90;;;;;;5011951;28;20187;-72
2023/05/29 03:57:51;;;;;;;9.40;2.17;;;11.90;99.90;;;;;;5011688;28;20274;-71
2023/05/29 04:00:18;;;;;;;5.33;1.67;;;11.90;99.90;;;;;;5011916;28;20399;-70
2023/05/29 04:02:43;;;;;;;2.40;2.13;;;11.90;99.90;;;;;;5012005;28;20243;-70
2023/05/29 04:05:09;;;;;;;4.90;2.60;;;11.90;99.90;;;;;;5011903;28;20490;-71
2023/05/29 04:07:38;;;;;;;12.70;2.57;;;11.90;99.90;;;;;;5011583;28;20184;-71
2023/05/29 04:10:06;;;;;;;4.13;2.33;;;11.90;99.90;;;;;;5011766;28;20188;-71
2023/05/29 04:12:32;;;;;;;3.67;1.67;;;12.00;99.90;;;;;;5011793;28;20430;-71
2023/05/29 04:14:58;;;;;;;6.50;3.10;;;12.00;99.90;;;;;;5011867;28;20388;-71
2023/05/29 04:17:23;;;;;;;4.03;2.13;;;12.00;99.90;;;;;;5011150;28;20430;-71
2023/05/29 04:19:49;;;;;;;3.67;2.00;;;12.00;99.90;;;;;;4993591;28;20407;-71
2023/05/29 04:22:15;;;;;;;2.70;1.87;;;12.10;99.90;;;;;;5011710;28;20164;-71
2023/05/29 04:24:41;;;;;;;3.73;2.33;;;12.10;99.90;;;;;;5011672;28;20238;-71
2023/05/29 04:27:08;;;;;;;4.83;2.67;;;12.20;99.90;;;;;;5011758;28;20200;-71
2023/05/29 04:29:34;;;;;;;6.37;2.47;;;12.20;99.90;;;;;;5015157;28;20553;-71
2023/05/29 04:32:03;;;;;;;5.53;1.40;;;12.20;99.90;;;;;;5015363;28;20486;-71
2023/05/29 04:34:30;;;;;;;4.40;2.37;;;12.30;99.90;;;;;;5015178;28;20857;-71
2023/05/29 04:36:58;;;;;;;4.87;2.30;;;12.40;99.90;;;;;;5014937;28;20399;-71
2023/05/29 04:39:24;;;;;;;10.40;2.17;;;12.40;99.90;;;;;;5015053;28;20418;-71
2023/05/29 04:41:51;;;;;;;5.23;1.87;;;12.50;99.90;;;;;;5015067;28;20449;-71
2023/05/29 04:44:17;;;;;;;7.17;2.73;;;12.60;99.90;;;;;;5015133;28;20818;-71
2023/05/29 04:46:43;;;;;;;4.47;2.13;;;12.60;99.90;;;;;;5014749;28;20396;-71
2023/05/29 04:49:10;;;;;;;3.30;2.20;;;12.70;99.90;;;;;;5014639;28;20423;-71
2023/05/29 04:51:36;;;;;;;3.67;1.73;;;12.80;99.90;;;;;;5014758;28;20447;-71
2023/05/29 04:54:02;;;;;;;3.63;1.83;;;12.80;99.90;;;;;;5015043;28;20399;-71
2023/05/29 04:56:28;;;;;;;3.80;1.77;;;12.90;99.90;;;;;;5014994;28;20927;-71
2023/05/29 04:58:54;;;;;;;5.00;2.20;;;13.00;99.90;;;;;;5014501;28;20419;-71
2023/05/29 05:01:19;;;;;;;4.20;1.60;;;13.00;99.90;;;;;;5014729;28;20169;-71
2023/05/29 05:03:45;;;;;;;3.43;1.70;;;13.10;99.90;;;;;;5014744;28;20219;-71
2023/05/29 05:06:12;;;;;;;7.70;2.47;;;13.20;99.90;;;;;;5014663;28;20169;-71
2023/05/29 05:08:38;;;;;;;2.63;1.70;;;13.30;99.90;;;;;;5014305;28;20216;-71
2023/05/29 05:11:04;;;;;;;3.60;2.20;;;13.40;99.90;;;;;;5014447;28;20509;-71
2023/05/29 05:13:29;;;;;;;5.23;2.00;;;13.50;99.90;;;;;;5014372;28;20551;-71
2023/05/29 05:15:55;;;;;;;6.10;2.17;;;13.60;99.90;;;;;;5014435;28;20404;-71
2023/05/29 05:18:21;;;;;;;3.20;1.70;;;13.70;99.90;;;;;;5014099;28;20195;-71
2023/05/29 05:20:46;;;;;;;2.40;1.57;;;13.80;99.90;;;;;;5014370;28;20927;-71
2023/05/29 05:23:12;;;;;;;8.33;2.70;;;13.90;99.90;;;;;;5014248;28;20219;-71
2023/05/29 05:25:38;;;;;;;4.73;1.77;;;14.00;99.90;;;;;;5014283;28;20184;-72
2023/05/29 05:28:04;;;;;;;2.80;1.87;;;14.20;99.90;;;;;;5014256;28;20661;-71
2023/05/29 05:30:30;;;;;;;12.23;2.50;;;14.30;99.90;;;;;;5014175;28;20447;-71
2023/05/29 05:32:55;;;;;;;6.33;2.93;;;14.60;99.90;;;;;;5014062;28;20768;-71
2023/05/29 05:35:21;;;;;;;5.20;2.20;;;14.80;99.90;;;;;;5014103;28;20164;-71
2023/05/29 05:37:47;;;;;;;3.10;1.67;;;15.00;99.90;;;;;;5013448;28;20229;-71
2023/05/29 05:40:13;;;;;;;8.10;3.90;;;15.10;99.90;;;;;;5013920;28;20169;-71
2023/05/29 05:42:38;;;;;;;2.70;1.43;;;15.40;99.90;;;;;;5013939;28;20188;-71
2023/05/29 05:45:06;;;;;;;3.13;1.50;;;15.80;99.90;;;;;;5014415;28;20168;-72
2023/05/29 05:47:32;;;;;;;4.40;2.13;;;16.30;99.90;;;;;;5013443;28;20188;-72
2023/05/29 05:49:57;;;;;;;4.73;1.93;;;16.70;99.90;;;;;;5013655;28;20443;-72
2023/05/29 05:52:24;;;;;;;3.63;1.57;;;17.00;99.90;;;;;;5013745;28;20486;-72
2023/05/29 05:54:50;;;;;;;4.40;1.50;;;17.30;99.90;;;;;;5013703;28;20618;-72
2023/05/29 05:57:15;;;;;;;9.33;2.17;;;17.50;99.90;;;;;;5013329;28;20399;-72
2023/05/29 05:59:41;;;;;;;2.90;1.60;;;17.80;99.90;;;;;;5013759;28;20176;-72
2023/05/29 06:02:06;;;;;;;5.17;2.10;;;18.30;99.90;;;;;;5013655;28;20282;-72
2023/05/29 06:04:32;;;;;;;5.40;1.93;;;19.10;99.90;;;;;;5013516;28;20168;-73
2023/05/29 06:06:58;;;;;;;4.90;1.60;;;19.90;99.90;;;;;;5013346;28;20547;-72
2023/05/29 06:09:24;;;;;;;3.97;2.23;;;20.70;99.90;;;;;;5013313;28;20192;-72
2023/05/29 06:11:50;;;;;;;3.83;2.57;;;21.50;98.60;;;;;;5013469;28;20171;-72
2023/05/29 06:14:16;;;;;;;2.27;1.60;;;22.40;94.30;;;;;;5013236;28;20423;-72
2023/05/29 06:16:42;;;;;;;3.80;1.90;;;23.20;90.00;;;;;;5013250;28;20168;-72
2023/05/29 06:19:08;;;;;;;4.47;2.57;;;24.00;81.00;;;;;;5013048;28;20423;-72
2023/05/29 06:21:34;;;;;;;4.63;2.20;;;24.70;74.80;;;;;;5013243;28;20434;-72
2023/05/29 06:23:59;;;;;;;4.13;2.27;;;25.40;69.40;;;;;;5013199;28;20515;-72
2023/05/29 06:26:25;;;;;;;5.57;2.10;;;26.10;62.70;;;;;;5013280;28;20165;-73
2023/05/29 06:28:51;;;;;;;7.73;2.13;;;26.80;57.40;;;;;;5012934;28;20276;-73
2023/05/29 06:31:16;;;;;;;9.50;2.37;;;27.30;55.80;;;;;;5012989;28;20196;-73
2023/05/29 06:33:42;;;;;;;6.40;2.50;;;27.80;53.40;;;;;;4995300;28;20199;-73
2023/05/29 06:36:08;;;;;;;5.37;2.10;;;28.40;51.30;;;;;;5012986;28;20172;-73
2023/05/29 06:38:33;;;;;;;6.03;2.00;;;28.80;49.60;;;;;;5012670;28;20188;-73
2023/05/29 06:40:59;;;;;;;3.40;2.07;;;29.30;47.90;;;;;;5012956;28;20252;-73
2023/05/29 06:43:25;;;;;;;4.07;2.37;;;29.90;46.20;;;;;;5012869;28;20642;-73
2023/05/29 06:45:51;;;;;;;5.37;2.50;;;30.40;44.80;;;;;;5012797;28;20176;-74
2023/05/29 06:48:16;;;;;;;5.57;2.73;;;30.90;44.00;;;;;;5012604;28;20485;-75
2023/05/29 06:50:42;;;;;;;3.17;2.13;;;31.30;41.80;;;;;;5012482;28;20199;-75
2023/05/29 06:53:07;;;;;;;5.27;2.50;;;31.70;40.40;;;;;;5012635;28;20165;-74
2023/05/29 06:55:33;;;;;;;4.93;2.60;;;32.10;40.00;;;;;;5012643;28;20172;-75
2023/05/29 06:57:58;;;;;;;6.40;2.87;;;32.70;39.80;;;;;;4995140;28;20190;-75
2023/05/29 07:00:24;;;;;;;4.83;3.33;;;33.00;37.70;;;;;;5012796;28;20222;-75
2023/05/29 07:02:50;;;;;;;2.80;1.80;;;33.30;36.30;;;;;;5012891;28;20168;-75
2023/05/29 07:05:16;;;;;;;4.37;2.30;;;33.70;36.40;;;;;;4995378;28;20172;-75
2023/05/29 07:07:42;;;;;;;4.80;2.13;;;34.20;35.60;;;;;;5012660;28;20803;-75
2023/05/29 07:10:07;;;;;;;3.73;2.43;;;34.60;34.70;;;;;;5013117;28;20247;-75
2023/05/29 07:12:33;;;;;;;6.73;2.87;;;35.10;34.00;;;;;;5013060;28;20180;-75
2023/05/29 07:14:58;;;;;;;4.53;2.50;;;35.50;32.70;;;;;;5013121;28;20198;-75
2023/05/29 07:17:24;;;;;;;4.60;2.20;;;35.70;33.00;;;;;;5013006;28;20184;-75
2023/05/29 07:19:49;;;;;;;3.87;2.50;;;36.10;32.40;;;;;;5014300;28;20172;-75
2023/05/29 07:22:16;;;;;;;3.77;2.37;;;36.50;31.30;;;;;;5013958;28;20168;-75
2023/05/29 07:24:41;;;;;;;6.23;2.50;;;36.80;30.50;;;;;;5013675;28;20172;-75
2023/05/29 07:27:07;;;;;;;8.47;2.43;;;37.20;30.00;;;;;;5013368;28;20998;-75
2023/05/29 07:29:32;;;;;;;4.93;2.70;;;37.60;29.80;;;;;;4995909;28;20211;-75
2023/05/29 07:31:58;;;;;;;6.50;3.50;;;38.00;29.70;;;;;;5013720;28;20164;-75
2023/05/29 07:34:23;;;;;;;2.80;2.30;;;38.40;28.80;;;;;;5013429;28;20168;-76
2023/05/29 07:37:03;;;;;;;4.17;2.50;;;38.70;28.30;;;;;;5013034;28;20825;-75
2023/05/29 07:39:30;;;;;;;4.40;2.20;;;39.10;28.10;;;;;;5013267;28;20199;-75
2023/05/29 07:41:55;;;;;;;7.83;3.40;;;39.50;27.50;;;;;;5013298;28;21058;-74
2023/05/29 07:44:21;;;;;;;8.77;2.47;;;39.70;27.10;;;;;;5012130;28;20374;-76
2023/05/29 07:46:47;;;;;;;2.97;2.20;;;40.00;27.30;;;;;;5012109;28;20606;-74
2023/05/29 07:49:13;;;;;;;5.87;3.07;;;40.40;26.90;;;;;;5011853;28;20681;-74
2023/05/29 07:51:38;;;;;;;17.93;4.63;;;40.60;26.20;;;;;;5011965;28;20199;-73
2023/05/29 07:54:05;;;;;;;3.67;2.83;;;40.80;26.10;;;;;;5012166;28;20782;-74
2023/05/29 07:56:33;;;;;;;3.63;2.33;;;41.00;25.90;;;;;;5012038;28;20196;-74
2023/05/29 07:58:59;;;;;;;9.10;3.10;;;41.40;25.70;;;;;;5011545;28;20409;-73
2023/05/29 08:01:26;;;;;;;4.83;2.70;;;41.80;25.50;;;;;;5012857;28;20390;-72
2023/05/29 08:03:51;;;;;;;3.30;2.83;;;42.30;25.20;;;;;;5015834;28;20207;-72
2023/05/29 08:06:17;;;;;;;4.20;3.30;;;42.60;24.90;;;;;;5015773;28;20455;-73
2023/05/29 08:08:43;;;;;;;2.97;2.57;;;42.90;24.50;;;;;;5015345;28;20192;-73
2023/05/29 08:11:10;;;;;;;4.43;2.70;;;43.10;24.30;;;;;;5015538;28;20196;-73
2023/05/29 08:13:36;;;;;;;5.87;2.73;;;43.20;24.20;;;;;;5015435;28;20426;-73
2023/05/29 08:16:02;;;;;;;4.30;2.57;;;43.30;24.00;;;;;;5015603;28;20739;-73
2023/05/29 08:18:30;;;;;;;4.10;2.63;;;43.50;24.20;;;;;;5016061;28;20273;-74
2023/05/29 08:20:55;;;;;;;4.30;2.67;;;43.70;23.90;;;;;;5016613;28;20459;-74
2023/05/29 08:23:21;;;;;;;5.03;2.53;;;43.80;23.80;;;;;;5016674;28;20410;-74
2023/05/29 08:25:47;;;;;;;4.20;2.13;;;43.90;23.40;;;;;;5016539;28;20176;-75
2023/05/29 08:28:14;;;;;;;4.47;2.40;;;44.00;23.30;;;;;;5015977;28;20562;-74
2023/05/29 08:30:40;;;;;;;3.43;2.30;;;44.00;23.40;;;;;;5017002;28;20489;-75
2023/05/29 08:33:05;;;;;;;3.60;1.80;;;44.10;23.20;;;;;;5016552;28;20409;-74
2023/05/29 08:35:31;;;;;;;4.30;2.87;;;44.20;23.10;;;;;;5016814;28;20168;-75
2023/05/29 08:37:56;;;;;;;4.13;2.47;;;44.40;22.90;;;;;;5015712;28;20196;-73
2023/05/29 08:40:22;;;;;;;8.50;3.33;;;44.80;22.70;;;;;;5015044;28;20196;-73
2023/05/29 08:43:02;;;;;;;4.87;2.77;;;45.00;22.80;;;;;;5014958;28;20168;-73
2023/05/29 08:45:29;;;;;;;3.80;2.70;;;44.80;22.40;;;;;;5015116;28;20270;-74
2023/05/29 08:47:57;;;;;;;4.23;2.50;;;44.80;22.70;;;;;;5014681;28;20488;-74
2023/05/29 08:50:23;;;;;;;4.03;2.73;;;44.80;22.30;;;;;;5015036;28;20943;-75
2023/05/29 08:52:49;;;;;;;9.23;3.17;;;44.60;22.30;;;;;;5015079;28;20439;-74
2023/05/29 08:55:15;;;;;;;4.13;3.00;;;44.70;22.40;;;;;;5015124;28;20172;-74
2023/05/29 08:57:43;;;;;;;2.80;2.40;;;45.00;22.60;;;;;;4997130;28;20500;-74
2023/05/29 09:00:12;;;;;;;3.33;2.40;;;45.40;22.30;;;;;;5015180;28;20822;-74
2023/05/29 09:02:40;;;;;;;3.03;2.60;;;45.80;22.10;;;;;;5015240;28;20378;-75
2023/05/29 09:05:06;;;;;;;5.47;3.13;;;46.10;22.00;;;;;;5015115;28;20414;-74
2023/05/29 09:07:33;;;;;;;3.43;2.40;;;46.40;21.60;;;;;;5014576;28;20405;-74
2023/05/29 09:10:00;;;;;;;4.63;3.10;;;46.60;21.50;;;;;;5014929;28;20494;-74
2023/05/29 09:12:26;;;;;;;3.90;2.40;;;46.70;21.50;;;;;;4996403;28;20439;-74
2023/05/29 09:14:52;;;;;;;7.97;3.17;;;46.70;21.50;;;;;;5013829;28;20788;-74
2023/05/29 09:17:17;;;;;;;4.90;2.80;;;46.50;21.30;;;;;;5014365;28;20415;-74
2023/05/29 09:19:44;;;;;;;5.40;2.87;;;46.50;21.50;;;;;;5014063;28;20666;-72
2023/05/29 09:22:16;;;;;;;5.30;3.37;;;46.50;21.40;;;;;;5014019;28;20525;-72
2023/05/29 09:24:45;;;;;;;4.60;2.80;;;46.60;21.20;;;;;;5014112;28;20436;-71
2023/05/29 09:27:11;;;;;;;7.77;2.90;;;46.90;21.40;;;;;;5013151;28;20944;-71
2023/05/29 09:29:43;;;;;;;4.30;2.60;;;47.20;21.40;;;;;;5013925;28;20413;-71
2023/05/29 09:32:19;;;;;;;7.70;3.10;;;47.60;21.20;;;;;;5014165;28;20626;-71
2023/05/29 09:34:45;;;;;;;4.07;2.50;;;48.00;21.10;;;;;;5014110;28;20457;-72
2023/05/29 09:37:12;;;;;;;7.30;3.37;;;48.50;20.90;;;;;;5014079;28;20860;-72
2023/05/29 09:39:49;;;;;;;7.17;2.73;;;48.80;20.60;;;;;;5013845;28;20404;-71
2023/05/29 09:42:16;;;;;;;2.83;2.30;;;49.00;20.70;;;;;;5013978;28;20908;-72
2023/05/29 09:44:42;;;;;;;6.10;3.10;;;49.30;20.60;;;;;;5013942;28;20403;-72
2023/05/29 09:47:08;;;;;;;5.03;3.30;;;49.40;20.40;;;;;;5013520;28;20386;-71
2023/05/29 09:49:34;;;;;;;4.70;3.20;;;49.60;20.20;;;;;;5013825;28;20457;-71
2023/05/29 09:52:00;;;;;;;3.00;2.57;;;49.80;20.60;;;;;;5013812;28;20382;-71
2023/05/29 09:54:30;;;;;;;6.80;3.37;;;50.00;20.00;;;;;;5013870;28;20557;-71
2023/05/29 09:56:58;;;;;;;3.87;2.87;;;50.00;19.80;;;;;;5013488;28;20910;-71
2023/05/29 09:59:24;;;;;;;3.30;2.67;;;49.60;19.90;;;;;;5013559;28;20434;-71
2023/05/29 10:02:01;;;;;;;3.03;2.40;;;49.30;20.10;;;;;;5013567;28;20377;-71
2023/05/29 10:04:27;;;;;;;3.60;2.97;;;49.40;20.30;;;;;;5013860;28;20397;-71
2023/05/29 10:06:56;;;;;;;4.57;3.13;;;49.60;20.40;;;;;;5013429;28;20400;-71
2023/05/29 10:09:26;;;;;;;4.57;3.03;;;49.50;20.00;;;;;;5013379;28;20493;-72
2023/05/29 10:11:57;;;;;;;5.10;3.23;;;49.60;20.30;;;;;;5013353;28;20761;-71
2023/05/29 10:14:25;;;;;;;3.93;3.00;;;49.60;19.90;;;;;;5013241;28;20426;-72
2023/05/29 10:16:52;;;;;;;5.00;2.50;;;49.50;19.80;;;;;;5013026;28;20411;-72
2023/05/29 10:19:25;;;;;;;7.17;3.10;;;49.70;20.10;;;;;;5013170;28;20430;-72
2023/05/29 10:21:53;;;;;;;3.70;2.83;;;50.10;20.00;;;;;;5013210;28;20480;-73
2023/05/29 10:24:19;;;;;;;3.80;2.53;;;50.40;19.70;;;;;;5013227;28;20434;-72
2023/05/29 10:26:48;;;;;;;5.30;2.73;;;50.40;19.70;;;;;;5013057;28;20439;-72
2023/05/29 10:29:22;;;;;;;4.10;3.70;;;50.40;19.70;;;;;;5012864;28;20187;-72
2023/05/29 10:32:09;;;;;;;3.00;2.70;;;50.30;19.60;;;;;;5013163;28;20399;-71
2023/05/29 10:34:56;;;;;;;4.07;3.27;;;50.00;19.40;;;;;;5013186;28;20382;-71
2023/05/29 10:37:42;;;;;;;6.67;3.67;;;49.60;19.40;;;;;;5012669;28;20773;-71
2023/05/29 10:40:13;;;;;;;4.00;3.00;;;49.20;19.50;;;;;;5012872;28;20438;-71
2023/05/29 10:42:45;;;;;;;5.33;2.87;;;48.80;19.80;;;;;;5012900;28;20494;-72
2023/05/29 10:45:41;;;;;;;4.20;2.80;;;48.80;19.90;;;;;;5012959;28;20403;-70
2023/05/29 10:48:07;;;;;;;5.87;3.03;;;48.90;19.90;;;;;;5012126;28;20426;-71
2023/05/29 10:50:45;;;;;;;4.93;2.87;;;49.00;19.90;;;;;;5012823;28;20466;-72
2023/05/29 10:53:16;;;;;;;3.73;3.07;;;49.10;19.90;;;;;;5012702;28;20180;-72
2023/05/29 10:55:41;;;;;;;3.53;2.90;;;49.00;19.70;;;;;;5012665;28;20410;-71
2023/05/29 10:58:08;;;;;;;4.00;3.00;;;49.10;19.80;;;;;;5012284;28;20431;-71
2023/05/29 11:00:33;;;;;;;4.17;3.00;;;49.30;20.00;;;;;;5012499;28;20210;-72
2023/05/29 11:03:03;;;;;;;4.17;3.20;;;49.60;19.70;;;;;;5012432;28;20492;-71
2023/05/29 11:05:29;;;;;;;4.80;3.27;;;49.80;19.60;;;;;;5012591;28;20291;-72
2023/05/29 11:08:00;;;;;;;3.83;2.63;;;49.90;19.50;;;;;;5012104;28;20439;-71
2023/05/29 11:10:55;;;;;;;3.73;2.53;;;50.00;19.60;;;;;;5012416;28;20226;-71
2023/05/29 11:13:25;;;;;;;4.63;3.23;;;50.00;19.30;;;;;;5012377;28;20462;-71
2023/05/29 11:16:15;;;;;;;2.93;2.27;;;50.20;19.40;;;;;;5012406;28;20403;-70
2023/05/29 11:18:46;;;;;;;4.53;3.20;;;50.40;19.00;;;;;;5012065;28;20517;-71
2023/05/29 11:21:52;;;;;;;3.90;3.03;;;50.70;19.30;;;;;;5012290;28;20458;-70
2023/05/29 11:24:23;;;;;;;5.17;3.80;;;50.90;19.30;;;;;;5012230;28;20391;-71
2023/05/29 11:26:51;;;;;;;5.73;3.20;;;50.80;19.10;;;;;;5012264;28;20400;-71
2023/05/29 11:29:24;;;;;;;2.97;2.70;;;50.70;19.60;;;;;;5012070;28;20546;-70
2023/05/29 11:31:58;;;;;;;6.90;3.53;;;50.90;19.10;;;;;;5012300;28;20378;-70
2023/05/29 11:34:27;;;;;;;3.23;2.93;;;51.10;19.30;;;;;;5012247;28;20494;-70
2023/05/29 11:36:53;;;;;;;2.70;2.50;;;51.30;19.00;;;;;;5015601;28;20946;-71
2023/05/29 11:39:18;;;;;;;3.53;2.97;;;51.60;19.30;;;;;;5018524;28;20427;-70
2023/05/29 11:41:44;;;;;;;5.10;2.97;;;51.80;18.90;;;;;;5018629;28;20227;-71
2023/05/29 11:44:13;;;;;;;4.10;3.10;;;51.80;18.90;;;;;;5018659;28;20164;-73
2023/05/29 11:46:40;;;;;;;7.20;3.77;;;51.80;18.80;;;;;;5018639;28;20250;-73
2023/05/29 11:49:05;;;;;;;5.03;3.23;;;51.90;19.10;;;;;;5018299;28;20419;-73
2023/05/29 11:51:31;;;;;;;4.03;3.20;;;52.10;19.10;;;;;;5018587;28;20418;-73
2023/05/29 11:53:59;;;;;;;3.10;2.90;;;51.80;18.80;;;;;;5018523;28;20183;-71
2023/05/29 11:56:26;;;;;;;4.67;3.30;;;51.50;18.90;;;;;;5018415;28;20172;-72
2023/05/29 11:58:56;;;;;;;4.20;2.97;;;51.10;18.90;;;;;;5018180;28;20454;-72
2023/05/29 12:01:23;;;;;;;3.10;2.80;;;50.90;19.10;;;;;;5018506;28;20454;-72
2023/05/29 12:03:49;;;;;;;3.83;2.87;;;50.80;19.60;;;;;;5018602;28;20871;-71
2023/05/29 12:06:15;;;;;;;5.20;2.80;;;50.70;18.90;;;;;;5018122;28;20373;-72
2023/05/29 12:08:41;;;;;;;3.10;2.40;;;50.40;19.20;;;;;;5018176;28;20812;-72
2023/05/29 12:11:06;;;;;;;4.57;2.70;;;50.40;19.20;;;;;;5018378;28;20187;-72
2023/05/29 12:13:33;;;;;;;5.67;2.73;;;50.10;19.40;;;;;;5018276;28;20184;-72
2023/05/29 12:16:04;;;;;;;5.30;3.10;;;49.80;19.20;;;;;;5018659;28;20180;-71
2023/05/29 12:18:30;;;;;;;9.03;2.90;;;49.40;19.30;;;;;;5017922;28;20461;-71
2023/05/29 12:21:03;;;;;;;2.70;2.43;;;49.10;19.40;;;;;;5018030;28;20429;-71
2023/05/29 12:23:29;;;;;;;3.30;2.80;;;48.90;19.60;;;;;;5018105;28;20179;-71
2023/05/29 12:25:55;;;;;;;4.53;2.80;;;48.80;19.80;;;;;;5018306;28;20385;-71
2023/05/29 12:28:22;;;;;;;3.13;2.53;;;48.80;19.80;;;;;;5018006;28;20216;-70
2023/05/29 12:30:49;;;;;;;7.10;2.73;;;48.50;19.60;;;;;;5018197;28;20830;-70
2023/05/29 12:33:33;;;;;;;3.97;2.40;;;48.10;19.70;;;;;;5018220;28;20178;-70
2023/05/29 12:36:06;;;;;;;4.73;2.60;;;47.90;20.10;;;;;;5018131;28;20389;-70
2023/05/29 12:38:32;;;;;;;5.43;2.77;;;47.60;20.00;;;;;;5017821;28;20425;-70
2023/05/29 12:40:58;;;;;;;8.17;3.23;;;47.20;20.10;;;;;;5018042;28;20454;-70
2023/05/29 12:43:24;;;;;;;4.27;2.57;;;46.90;20.30;;;;;;5018160;28;20839;-70
2023/05/29 12:45:56;;;;;;;2.40;2.20;;;46.40;20.20;;;;;;5018099;28;20179;-70
2023/05/29 12:48:26;;;;;;;7.07;3.20;;;46.10;20.50;;;;;;5014739;28;20215;-70